createdAt,value
2017-09-27T00:00:02.243Z,36.80
2017-09-27T00:02:29.765Z,37.03
2017-09-27T00:04:57.263Z,35.37
2017-09-27T00:07:24.767Z,38.63
2017-09-27T00:09:52.256Z,38.80
2017-09-27T00:12:19.765Z,39.67
2017-09-27T00:14:47.302Z,38.80
2017-09-27T00:17:14.819Z,40.67
2017-09-27T00:19:42.324Z,39.90
2017-09-27T00:22:09.798Z,45.77
2017-09-27T00:24:37.300Z,47.20
2017-09-27T00:27:04.791Z,44.87
2017-09-27T00:29:32.290Z,39.27
2017-09-27T00:31:59.809Z,44.90
2017-09-27T00:34:27.301Z,44.33
2017-09-27T00:36:54.842Z,45.37
2017-09-27T00:39:22.343Z,40.70
2017-09-27T00:41:49.870Z,41.63
2017-09-27T00:44:17.441Z,40.00
2017-09-27T00:46:44.931Z,40.27
2017-09-27T00:49:12.431Z,42.23
2017-09-27T00:51:39.975Z,43.87
2017-09-27T00:54:07.473Z,43.57
2017-09-27T00:56:35.002Z,40.47
2017-09-27T00:59:02.526Z,40.13
2017-09-27T01:01:30.017Z,40.67
2017-09-27T01:03:57.531Z,40.47
2017-09-27T01:06:25.034Z,39.90
2017-09-27T01:08:52.524Z,36.60
2017-09-27T01:11:20.032Z,36.57
2017-09-27T01:13:47.521Z,38.00
2017-09-27T01:16:15.111Z,39.43
2017-09-27T01:18:42.598Z,40.13
2017-09-27T01:21:10.143Z,38.67
2017-09-27T01:23:37.682Z,36.70
2017-09-27T01:26:05.157Z,36.13
2017-09-27T01:28:32.669Z,40.20
2017-09-27T01:31:00.180Z,42.00
2017-09-27T01:33:27.690Z,39.97
2017-09-27T01:35:55.227Z,38.13
2017-09-27T01:38:22.740Z,37.20
2017-09-27T01:40:50.269Z,36.43
2017-09-27T01:43:17.778Z,33.07
2017-09-27T01:45:45.286Z,33.77
2017-09-27T01:48:12.799Z,32.50
2017-09-27T01:50:40.306Z,32.60
2017-09-27T01:53:07.838Z,32.90
2017-09-27T01:55:35.387Z,31.87
2017-09-27T01:58:02.925Z,31.10
2017-09-27T02:00:30.458Z,30.63
2017-09-27T02:02:58.123Z,31.43
2017-09-27T02:05:25.612Z,33.50
2017-09-27T02:07:53.137Z,33.13
2017-09-27T02:10:20.651Z,34.30
2017-09-27T02:12:48.139Z,31.67
2017-09-27T02:15:15.655Z,32.43
2017-09-27T02:17:43.122Z,31.73
2017-09-27T02:20:10.606Z,31.80
2017-09-27T02:22:38.122Z,33.23
2017-09-27T02:25:05.610Z,32.47
2017-09-27T02:27:33.097Z,33.27
2017-09-27T02:30:00.604Z,31.83
2017-09-27T02:32:28.088Z,32.17
2017-09-27T02:34:55.571Z,32.30
2017-09-27T02:37:23.133Z,32.47
2017-09-27T02:39:50.643Z,31.40
2017-09-27T02:42:18.155Z,30.43
2017-09-27T02:44:45.669Z,31.67
2017-09-27T02:47:13.167Z,30.23
2017-09-27T02:49:40.682Z,30.60
2017-09-27T02:52:08.193Z,30.57
2017-09-27T02:54:35.690Z,30.83
2017-09-27T02:57:03.217Z,31.30
2017-09-27T02:59:30.723Z,32.40
2017-09-27T03:01:58.238Z,33.57
2017-09-27T03:04:25.730Z,33.50
2017-09-27T03:06:53.275Z,33.17
2017-09-27T03:09:20.780Z,32.40
2017-09-27T03:11:48.280Z,32.07
2017-09-27T03:14:15.816Z,34.07
2017-09-27T03:16:43.299Z,31.77
2017-09-27T03:19:10.788Z,33.03
2017-09-27T03:21:38.312Z,31.67
2017-09-27T03:24:05.833Z,32.80
2017-09-27T03:26:33.310Z,31.20
2017-09-27T03:29:00.848Z,30.90
2017-09-27T03:31:28.400Z,29.67
2017-09-27T03:33:55.877Z,31.20
2017-09-27T03:36:23.382Z,33.00
2017-09-27T03:38:50.902Z,34.70
2017-09-27T03:41:18.384Z,34.23
2017-09-27T03:43:45.890Z,34.07
2017-09-27T03:46:13.400Z,34.00
2017-09-27T03:48:40.908Z,34.60
2017-09-27T03:51:08.399Z,33.87
2017-09-27T03:53:35.939Z,35.47
2017-09-27T03:56:03.407Z,34.90
2017-09-27T03:58:30.939Z,34.10
2017-09-27T04:00:58.458Z,35.20
2017-09-27T04:03:25.941Z,40.43
2017-09-27T04:05:53.451Z,44.00
2017-09-27T04:08:20.986Z,49.07
2017-09-27T04:10:48.505Z,46.10
2017-09-27T04:13:15.988Z,51.17
2017-09-27T04:15:43.487Z,50.77
2017-09-27T04:18:10.959Z,49.70
2017-09-27T04:20:38.434Z,50.37
2017-09-27T04:23:05.943Z,46.30
2017-09-27T04:25:33.422Z,47.13
2017-09-27T04:28:00.911Z,46.23
2017-09-27T04:30:28.428Z,48.00
2017-09-27T04:32:55.931Z,47.37
2017-09-27T04:35:23.415Z,45.10
2017-09-27T04:37:50.926Z,48.47
2017-09-27T04:40:18.406Z,47.40
2017-09-27T04:42:45.901Z,48.10
2017-09-27T04:45:13.402Z,46.70
2017-09-27T04:47:40.882Z,44.90
2017-09-27T04:50:08.396Z,44.43
2017-09-27T04:52:35.890Z,43.80
2017-09-27T04:55:03.370Z,40.77
2017-09-27T04:57:30.856Z,41.13
2017-09-27T04:59:58.385Z,44.67
2017-09-27T05:02:25.872Z,42.50
2017-09-27T05:04:53.365Z,42.37
2017-09-27T05:07:20.871Z,42.03
2017-09-27T05:09:48.356Z,43.97
2017-09-27T05:12:15.840Z,44.10
2017-09-27T05:14:43.350Z,41.60
2017-09-27T05:17:10.881Z,42.03
2017-09-27T05:19:38.364Z,43.80
2017-09-27T05:22:05.844Z,40.50
2017-09-27T05:24:33.342Z,42.33
2017-09-27T05:27:00.811Z,41.37
2017-09-27T05:29:28.792Z,40.23
2017-09-27T05:31:56.357Z,41.00
2017-09-27T05:34:23.832Z,39.53
2017-09-27T05:36:51.316Z,41.97
2017-09-27T05:39:19.475Z,41.83
2017-09-27T05:41:46.995Z,43.23
2017-09-27T05:44:14.466Z,38.60
2017-09-27T05:46:41.972Z,40.70
2017-09-27T05:49:09.458Z,40.10
2017-09-27T05:51:36.950Z,41.00
2017-09-27T05:54:04.451Z,42.10
2017-09-27T05:56:31.926Z,40.47
2017-09-27T05:58:59.413Z,37.33
2017-09-27T06:01:26.928Z,40.60
2017-09-27T06:03:54.406Z,39.43
2017-09-27T06:06:21.955Z,40.70
2017-09-27T06:08:49.455Z,38.30
2017-09-27T06:11:16.931Z,38.87
2017-09-27T06:13:44.432Z,42.00
2017-09-27T06:16:11.943Z,42.03
2017-09-27T06:18:39.420Z,43.07
2017-09-27T06:21:06.890Z,40.60
2017-09-27T06:23:34.387Z,40.00
2017-09-27T06:26:01.868Z,40.87
2017-09-27T06:28:29.356Z,41.40
2017-09-27T06:30:56.854Z,41.27
2017-09-27T06:33:24.329Z,42.50
2017-09-27T06:35:51.799Z,39.60
2017-09-27T06:38:19.357Z,38.20
2017-09-27T06:40:46.786Z,40.20
2017-09-27T06:43:14.253Z,40.23
2017-09-27T06:45:41.754Z,41.07
2017-09-27T06:48:09.230Z,41.80
2017-09-27T06:50:36.691Z,38.80
2017-09-27T06:53:04.184Z,41.33
2017-09-27T06:55:31.651Z,41.93
2017-09-27T06:57:59.127Z,39.10
2017-09-27T07:00:26.620Z,40.80
2017-09-27T07:02:54.098Z,40.20
2017-09-27T07:05:21.575Z,41.43
2017-09-27T07:07:49.070Z,40.37
2017-09-27T07:10:16.534Z,40.50
2017-09-27T07:12:44.084Z,41.77
2017-09-27T07:15:11.536Z,42.90
2017-09-27T07:17:38.998Z,42.40
2017-09-27T07:20:06.486Z,42.33
2017-09-27T07:22:33.954Z,40.97
2017-09-27T07:25:01.411Z,41.37
2017-09-27T07:27:28.904Z,38.77
2017-09-27T07:29:56.374Z,42.07
2017-09-27T07:32:23.842Z,40.30
2017-09-27T07:34:51.328Z,41.70
2017-09-27T07:37:18.803Z,41.47
2017-09-27T07:39:46.275Z,40.80
2017-09-27T07:42:13.763Z,41.93
2017-09-27T07:44:41.226Z,44.30
2017-09-27T07:47:08.695Z,41.77
2017-09-27T07:49:36.179Z,40.83
2017-09-27T07:52:03.637Z,42.23
2017-09-27T07:54:31.090Z,41.77
2017-09-27T07:56:58.571Z,40.03
2017-09-27T07:59:26.047Z,40.40
2017-09-27T08:01:53.532Z,38.57
2017-09-27T08:04:21.003Z,40.43
2017-09-27T08:06:48.483Z,38.10
2017-09-27T08:09:15.975Z,42.40
2017-09-27T08:11:43.435Z,42.73
2017-09-27T08:14:10.903Z,41.70
2017-09-27T08:16:38.394Z,41.07
2017-09-27T08:19:05.870Z,40.47
2017-09-27T08:21:33.338Z,39.73
2017-09-27T08:24:00.822Z,44.30
2017-09-27T08:26:28.286Z,43.20
2017-09-27T08:28:55.747Z,46.50
2017-09-27T08:31:23.268Z,44.47
2017-09-27T08:33:50.738Z,46.70
2017-09-27T08:36:18.209Z,45.87
2017-09-27T08:38:45.695Z,47.13
2017-09-27T08:41:13.206Z,44.30
2017-09-27T08:43:40.655Z,47.00
2017-09-27T08:46:08.143Z,46.53
2017-09-27T08:48:35.610Z,45.33
2017-09-27T08:51:03.083Z,45.80
2017-09-27T08:53:30.589Z,48.17
2017-09-27T08:55:58.050Z,45.97
2017-09-27T08:58:25.516Z,46.10
2017-09-27T09:00:53.006Z,44.93
2017-09-27T09:03:20.463Z,46.70
2017-09-27T09:05:47.930Z,48.40
2017-09-27T09:08:15.419Z,46.30
2017-09-27T09:10:42.883Z,43.40
2017-09-27T09:13:10.354Z,39.33
2017-09-27T09:15:37.856Z,44.30
2017-09-27T09:18:05.383Z,45.63
2017-09-27T09:20:32.852Z,44.70
2017-09-27T09:23:00.312Z,42.30
2017-09-27T09:25:27.826Z,41.77
2017-09-27T09:27:55.262Z,40.33
2017-09-27T09:30:22.722Z,39.93
2017-09-27T09:32:50.206Z,41.70
2017-09-27T09:35:17.673Z,38.90
2017-09-27T09:37:45.138Z,39.10
2017-09-27T09:40:12.630Z,38.60
2017-09-27T09:42:40.096Z,37.00
2017-09-27T09:45:07.574Z,37.47
2017-09-27T09:47:35.062Z,35.87
2017-09-27T09:50:02.538Z,37.30
2017-09-27T09:52:30.014Z,34.23
2017-09-27T09:54:57.507Z,36.87
2017-09-27T09:57:24.974Z,35.13
2017-09-27T09:59:52.432Z,34.10
2017-09-27T10:02:19.919Z,32.17
2017-09-27T10:04:47.380Z,34.80
2017-09-27T10:07:14.862Z,34.67
2017-09-27T10:09:42.324Z,30.40
2017-09-27T10:12:09.835Z,33.33
2017-09-27T10:14:37.363Z,32.73
2017-09-27T10:17:04.846Z,33.27
2017-09-27T10:19:32.306Z,33.53
2017-09-27T10:21:59.782Z,32.80
2017-09-27T10:24:27.258Z,35.63
2017-09-27T10:26:54.777Z,34.70
2017-09-27T10:29:22.248Z,32.13
2017-09-27T10:31:49.740Z,31.50
2017-09-27T10:34:17.203Z,33.03
2017-09-27T10:36:44.666Z,32.60
2017-09-27T10:39:12.150Z,32.10
2017-09-27T10:41:39.616Z,30.97
2017-09-27T10:44:07.086Z,32.60
2017-09-27T10:46:34.586Z,33.77
2017-09-27T10:49:02.055Z,31.20
2017-09-27T10:51:29.519Z,32.10
2017-09-27T10:53:57.023Z,34.13
2017-09-27T10:56:24.495Z,35.70
2017-09-27T10:58:51.965Z,31.50
2017-09-27T11:01:19.450Z,31.43
2017-09-27T11:03:46.910Z,32.17
2017-09-27T11:06:14.395Z,32.00
2017-09-27T11:08:41.883Z,32.50
2017-09-27T11:11:09.362Z,32.93
2017-09-27T11:13:36.818Z,32.07
2017-09-27T11:16:04.298Z,31.77
2017-09-27T11:18:31.759Z,28.70
2017-09-27T11:20:59.214Z,30.53
2017-09-27T11:23:26.698Z,30.50
2017-09-27T11:25:54.162Z,29.33
2017-09-27T11:28:21.622Z,31.17
2017-09-27T11:30:49.147Z,32.60
2017-09-27T11:33:16.630Z,29.60
2017-09-27T11:35:44.103Z,30.00
2017-09-27T11:38:11.583Z,30.07
2017-09-27T11:40:39.042Z,31.10
2017-09-27T11:43:06.506Z,30.53
2017-09-27T11:45:33.982Z,28.97
2017-09-27T11:48:01.439Z,26.97
2017-09-27T11:50:28.898Z,28.33
2017-09-27T11:52:56.382Z,28.97
2017-09-27T11:55:23.838Z,27.23
2017-09-27T11:57:51.305Z,29.03
2017-09-27T12:00:18.786Z,30.20
2017-09-27T12:02:46.240Z,30.33
2017-09-27T12:05:13.702Z,27.57
2017-09-27T12:07:41.182Z,27.97
2017-09-27T12:10:08.641Z,27.13
2017-09-27T12:12:36.102Z,26.27
2017-09-27T12:15:03.587Z,25.33
2017-09-27T12:17:31.042Z,25.80
2017-09-27T12:19:58.508Z,23.93
2017-09-27T12:22:25.990Z,26.10
2017-09-27T12:24:53.450Z,25.37
2017-09-27T12:27:20.930Z,25.27
2017-09-27T12:29:48.391Z,23.73
2017-09-27T12:32:15.851Z,24.57
2017-09-27T12:34:43.335Z,23.10
2017-09-27T12:37:10.827Z,23.27
2017-09-27T12:39:38.306Z,23.73
2017-09-27T12:42:05.762Z,20.57
2017-09-27T12:44:33.246Z,24.00
2017-09-27T12:47:00.702Z,22.37
2017-09-27T12:49:28.159Z,24.70
2017-09-27T12:51:55.638Z,23.20
2017-09-27T12:54:23.106Z,19.80
2017-09-27T12:56:50.570Z,21.77
2017-09-27T12:59:18.064Z,19.60
2017-09-27T13:01:45.525Z,20.40
2017-09-27T13:04:12.989Z,22.67
2017-09-27T13:06:40.475Z,20.67
2017-09-27T13:09:07.934Z,21.20
2017-09-27T13:11:35.395Z,20.27
2017-09-27T13:14:02.883Z,20.67
2017-09-27T13:16:30.343Z,19.60
2017-09-27T13:18:57.799Z,17.93
2017-09-27T13:21:25.293Z,20.63
2017-09-27T13:23:52.754Z,21.77
2017-09-27T13:26:20.212Z,21.17
2017-09-27T13:28:47.694Z,19.80
2017-09-27T13:31:15.150Z,19.17
2017-09-27T13:33:42.607Z,19.53
2017-09-27T13:36:10.085Z,19.90
2017-09-27T13:38:37.537Z,20.20
2017-09-27T13:41:04.998Z,19.20
2017-09-27T13:43:32.478Z,19.50
2017-09-27T13:45:59.930Z,18.13
2017-09-27T13:48:27.389Z,18.63
2017-09-27T13:50:54.870Z,16.17
2017-09-27T13:53:22.331Z,20.00
2017-09-27T13:55:49.791Z,18.13
2017-09-27T13:58:17.279Z,19.57
2017-09-27T14:00:44.743Z,18.20
2017-09-27T14:03:12.201Z,18.67
2017-09-27T14:05:39.678Z,17.50
2017-09-27T14:08:07.142Z,18.47
2017-09-27T14:10:34.594Z,16.27
2017-09-27T14:13:02.083Z,16.77
2017-09-27T14:15:29.546Z,17.10
2017-09-27T14:17:57.007Z,17.27
2017-09-27T14:20:24.507Z,16.93
2017-09-27T14:22:51.971Z,18.20
2017-09-27T14:25:19.430Z,19.33
2017-09-27T14:27:46.911Z,17.30
2017-09-27T14:30:14.373Z,18.30
2017-09-27T14:32:41.834Z,18.50
2017-09-27T14:35:09.318Z,18.63
2017-09-27T14:37:36.774Z,18.37
2017-09-27T14:40:04.238Z,20.43
2017-09-27T14:42:31.730Z,18.33
2017-09-27T14:44:59.191Z,19.23
2017-09-27T14:47:26.658Z,19.43
2017-09-27T14:49:54.147Z,18.90
2017-09-27T14:52:21.606Z,20.77
2017-09-27T14:54:49.071Z,19.63
2017-09-27T14:57:16.569Z,19.50
2017-09-27T14:59:44.034Z,20.40
2017-09-27T15:02:11.495Z,20.07
2017-09-27T15:04:38.979Z,17.93
2017-09-27T15:07:06.437Z,20.20
2017-09-27T15:09:33.895Z,18.70
2017-09-27T15:12:01.374Z,17.57
2017-09-27T15:14:28.842Z,19.77
2017-09-27T15:16:56.299Z,18.60
2017-09-27T15:19:23.780Z,18.60
2017-09-27T15:21:51.246Z,17.20
2017-09-27T15:24:18.704Z,17.17
2017-09-27T15:26:46.191Z,20.43
2017-09-27T15:29:13.660Z,20.03
2017-09-27T15:31:41.130Z,19.03
2017-09-27T15:34:08.606Z,18.77
2017-09-27T15:36:36.071Z,18.70
2017-09-27T15:39:03.526Z,18.97
2017-09-27T15:41:31.055Z,18.97
2017-09-27T15:43:58.523Z,19.70
2017-09-27T15:46:25.981Z,19.80
2017-09-27T15:48:53.462Z,20.23
2017-09-27T15:51:20.919Z,19.13
2017-09-27T15:53:48.379Z,20.00
2017-09-27T15:56:15.867Z,19.47
2017-09-27T15:58:43.322Z,20.00
2017-09-27T16:01:10.786Z,19.70
2017-09-27T16:03:38.295Z,19.77
2017-09-27T16:06:05.774Z,20.13
2017-09-27T16:08:33.231Z,19.03
2017-09-27T16:11:00.694Z,19.00
2017-09-27T16:13:28.177Z,18.47
2017-09-27T16:15:55.636Z,20.20
2017-09-27T16:18:23.119Z,19.80
2017-09-27T16:20:50.578Z,19.03
2017-09-27T16:23:18.038Z,20.97
2017-09-27T16:25:45.518Z,18.50
2017-09-27T16:28:12.977Z,18.27
2017-09-27T16:30:40.439Z,17.67
2017-09-27T16:33:07.919Z,21.50
2017-09-27T16:35:35.378Z,19.27
2017-09-27T16:38:02.847Z,20.67
2017-09-27T16:40:30.322Z,18.77
2017-09-27T16:42:57.783Z,18.83
2017-09-27T16:45:25.243Z,19.73
2017-09-27T16:47:52.732Z,19.63
2017-09-27T16:50:20.222Z,20.30
2017-09-27T16:52:47.697Z,19.70
2017-09-27T16:55:15.174Z,19.70
2017-09-27T16:57:42.642Z,19.70
2017-09-27T17:00:10.117Z,20.50
2017-09-27T17:02:37.628Z,19.40
2017-09-27T17:05:05.110Z,21.50
2017-09-27T17:07:32.595Z,22.23
2017-09-27T17:10:00.080Z,21.77
2017-09-27T17:12:27.628Z,19.13
2017-09-27T17:14:55.111Z,21.17
2017-09-27T17:17:22.587Z,21.40
2017-09-27T17:19:50.042Z,19.43
2017-09-27T17:22:17.522Z,21.90
2017-09-27T17:24:44.987Z,20.90
2017-09-27T17:27:12.556Z,20.53
2017-09-27T17:29:40.015Z,19.33
2017-09-27T17:32:07.470Z,17.87
2017-09-27T17:34:34.966Z,21.03
2017-09-27T17:37:02.431Z,22.37
2017-09-27T17:39:29.902Z,20.60
2017-09-27T17:41:57.415Z,21.10
2017-09-27T17:44:24.874Z,20.20
2017-09-27T17:46:52.369Z,22.13
2017-09-27T17:49:19.870Z,20.40
2017-09-27T17:51:47.330Z,19.10
2017-09-27T17:54:14.801Z,19.60
2017-09-27T17:56:42.290Z,20.90
2017-09-27T17:59:09.776Z,20.90
2017-09-27T18:01:37.250Z,21.40
2017-09-27T18:17:40.167Z,22.63
2017-09-27T18:20:07.636Z,27.30
2017-09-27T18:22:35.119Z,22.27
2017-09-27T18:25:02.698Z,24.93
2017-09-27T18:27:30.178Z,25.03
2017-09-27T18:29:57.655Z,23.07
2017-09-27T18:32:25.169Z,23.23
2017-09-27T18:34:52.654Z,21.10
2017-09-27T18:37:20.131Z,21.57
2017-09-27T18:39:47.640Z,22.33
2017-09-27T18:42:15.104Z,22.60
2017-09-27T18:44:42.578Z,23.60
2017-09-27T18:47:10.133Z,23.27
2017-09-27T18:49:37.615Z,24.03
2017-09-27T18:52:05.079Z,22.87
2017-09-27T18:54:32.901Z,23.07
2017-09-27T18:57:00.688Z,22.33
2017-09-27T18:59:28.233Z,23.10
2017-09-27T19:01:55.753Z,23.43
2017-09-27T19:04:23.500Z,23.53
2017-09-27T19:06:51.411Z,25.20
2017-09-27T19:09:19.493Z,22.70
2017-09-27T19:11:47.243Z,23.83
2017-09-27T19:14:14.953Z,24.00
2017-09-27T19:16:42.834Z,22.80
2017-09-27T19:19:10.827Z,22.83
2017-09-27T19:21:38.492Z,23.90
2017-09-27T19:24:06.465Z,23.97
2017-09-27T19:26:34.135Z,23.30
2017-09-27T19:29:01.639Z,22.07
2017-09-27T19:31:29.130Z,26.20
2017-09-27T19:33:56.672Z,24.40
2017-09-27T19:36:24.211Z,24.80
2017-09-27T19:38:51.818Z,23.07
2017-09-27T19:41:19.373Z,24.10
2017-09-27T19:43:46.964Z,23.27
2017-09-27T19:46:14.505Z,22.83
2017-09-27T19:48:42.046Z,23.30
2017-09-27T19:51:09.780Z,23.47
2017-09-27T19:53:37.404Z,25.13
2017-09-27T19:56:04.999Z,22.40
2017-09-27T20:01:20.791Z,23.10
2017-09-27T20:03:48.483Z,23.40
2017-09-27T20:06:16.086Z,22.80
2017-09-27T20:08:43.580Z,25.23
2017-09-27T20:11:11.214Z,23.93
2017-09-27T20:13:38.951Z,24.63
2017-09-27T20:16:06.497Z,24.30
2017-09-27T20:18:33.994Z,25.10
2017-09-27T20:21:01.467Z,24.63
2017-09-27T20:23:29.443Z,24.70
2017-09-27T20:25:57.022Z,26.90
2017-09-27T20:28:24.622Z,24.83
2017-09-27T20:30:52.110Z,23.83
2017-09-27T20:33:19.766Z,25.53
2017-09-27T20:35:47.250Z,24.10
2017-09-27T20:38:14.731Z,25.00
2017-09-27T20:40:42.187Z,26.27
2017-09-27T20:43:09.798Z,24.60
2017-09-27T20:45:37.288Z,25.00
2017-09-27T20:48:04.747Z,25.70
2017-09-27T20:50:32.245Z,26.40
2017-09-27T20:52:59.730Z,27.67
2017-09-27T20:55:27.214Z,26.40
2017-09-27T20:57:54.717Z,25.60
2017-09-27T21:00:22.210Z,25.63
2017-09-27T21:02:49.671Z,25.33
2017-09-27T21:05:17.155Z,25.60
2017-09-27T21:07:45.521Z,26.67
2017-09-27T21:10:13.013Z,25.77
2017-09-27T21:12:40.495Z,25.87
2017-09-27T21:15:07.982Z,25.67
2017-09-27T21:17:35.485Z,27.37
2017-09-27T21:20:02.973Z,28.73
2017-09-27T21:22:30.459Z,25.47
2017-09-27T21:24:57.927Z,27.50
2017-09-27T21:27:25.396Z,28.60
2017-09-27T21:29:52.903Z,30.90
2017-09-27T21:32:21.024Z,31.63
2017-09-27T21:34:48.522Z,29.87
2017-09-27T21:37:16.028Z,31.00
2017-09-27T21:39:43.524Z,34.87
2017-09-27T21:42:10.990Z,33.03
2017-09-27T21:44:38.454Z,32.50
2017-09-27T21:47:05.943Z,36.23
2017-09-27T21:49:33.406Z,35.07
2017-09-27T21:52:00.866Z,34.87
2017-09-27T21:54:28.361Z,40.50
2017-09-27T21:56:55.856Z,36.53
2017-09-27T21:59:23.313Z,35.90
2017-09-27T22:01:50.804Z,34.00
2017-09-27T22:04:18.263Z,35.90
2017-09-27T22:06:45.726Z,33.40
2017-09-27T22:09:13.215Z,35.60
2017-09-27T22:11:40.677Z,35.20
2017-09-27T22:14:08.144Z,35.20
2017-09-27T22:16:35.629Z,33.30
2017-09-27T22:19:03.091Z,31.57
2017-09-27T22:21:30.551Z,33.00
2017-09-27T22:23:58.039Z,31.00
2017-09-27T22:26:25.506Z,29.30
2017-09-27T22:28:52.974Z,30.50
2017-09-27T22:31:20.462Z,26.97
2017-09-27T22:33:47.922Z,29.60
2017-09-27T22:36:15.408Z,29.07
2017-09-27T22:38:42.891Z,28.87
2017-09-27T22:41:10.375Z,29.13
2017-09-27T22:43:37.831Z,27.50
2017-09-27T22:46:05.306Z,29.40
2017-09-27T22:48:32.786Z,27.70
2017-09-27T22:51:00.251Z,26.63
2017-09-27T22:53:27.711Z,28.50
2017-09-27T22:55:55.189Z,28.07
2017-09-27T22:58:22.664Z,26.90
2017-09-27T23:00:50.122Z,27.50
2017-09-27T23:03:17.607Z,28.70
2017-09-27T23:05:45.067Z,27.30
2017-09-27T23:08:12.526Z,26.87
2017-09-27T23:10:40.011Z,27.00
2017-09-27T23:13:07.474Z,27.30
2017-09-27T23:15:34.945Z,28.10
2017-09-27T23:18:02.427Z,29.47
2017-09-27T23:20:29.895Z,30.90
2017-09-27T23:22:57.347Z,28.57
2017-09-27T23:25:24.826Z,29.60
2017-09-27T23:27:52.283Z,33.00
2017-09-27T23:30:19.739Z,30.10
2017-09-27T23:32:47.218Z,30.63
2017-09-27T23:35:14.674Z,29.60
2017-09-27T23:37:42.138Z,32.53
2017-09-27T23:40:09.618Z,30.77
2017-09-27T23:42:37.078Z,31.97
2017-09-27T23:45:04.534Z,34.37
2017-09-27T23:47:32.010Z,35.60
2017-09-27T23:49:59.467Z,33.10
2017-09-27T23:52:26.933Z,34.47
2017-09-27T23:54:54.417Z,33.27
2017-09-27T23:57:21.878Z,32.50
2017-09-27T23:59:49.335Z,31.37
